X  Sluiten METAR luchtvaart weer gegevens         EBOS Ostend-Bruges International Airport
Temperatuur
17°C Temperatuur
16°C Dauwpunt
94% Vochtigheid



Wind
6 KM/U
3 MPH
1 M/S
3 KTS



230°
ZW
Huidig weer

Mostly Cloudy with Mist and Fog Grotendeels bewolkt , Nevel en mist
Luchtdruk 1014 (hPa) - 29.94 (inHg)
Zicht 1 (mijl) - 2 (km)
Vliegveld
Vliegveld code EBOS

Locatie : Ostend-Bruges International Airport
Afstand: 60 (km)

Metar:
METAR EBOS 180520Z 23003KT 2200 BR BKN012 BKN018 17/16 Q1014 BECMG 3500 BR

Tijd: 18-08-2022 07:20 CEST